Time;durP1;ratioP1;P1;durP2;ratioP2;P2;SDS_P1;SDS_P2;PMS_P1;PMS_P2;Temp;Humidity;BMP_temperature;BMP_pressure;BME280_temperature;BME280_humidity;BME280_pressure;Samples;Min_cycle;Max_cycle;Signal;HPM_P1;HPM_P2
2024/01/31 00:00:13;;;;;;;9.47;8.57;;;;;;;9.13;100.00;101951.34;4925163;29;20222;-75
2024/01/31 00:02:39;;;;;;;9.00;8.20;;;;;;;9.14;100.00;101953.97;4925472;29;20201;-76
2024/01/31 00:05:04;;;;;;;9.03;8.23;;;;;;;9.16;100.00;101943.66;4925958;29;20247;-75
2024/01/31 00:07:29;;;;;;;10.07;9.07;;;;;;;9.15;100.00;101944.50;4925728;29;20231;-76
2024/01/31 00:09:55;;;;;;;8.70;7.90;;;;;;;9.15;100.00;101947.94;4908686;29;20227;-75
2024/01/31 00:12:20;;;;;;;9.10;8.30;;;;;;;9.15;100.00;101949.66;4925098;29;20255;-75
2024/01/31 00:14:45;;;;;;;9.30;8.47;;;;;;;9.15;100.00;101953.09;4922422;29;20191;-76
2024/01/31 00:17:11;;;;;;;8.87;8.07;;;;;;;9.14;100.00;101953.09;4910898;29;20192;-74
2024/01/31 00:19:36;;;;;;;8.40;7.70;;;;;;;9.14;100.00;101943.63;4930735;29;20250;-77
2024/01/31 00:22:02;;;;;;;8.77;7.97;;;;;;;9.16;100.00;101946.25;4929384;29;20203;-76
2024/01/31 00:24:27;;;;;;;8.47;7.70;;;;;;;9.14;100.00;101953.97;4929054;29;20202;-74
2024/01/31 00:26:52;;;;;;;8.13;7.50;;;;;;;9.15;100.00;101958.28;4927191;29;20197;-76
2024/01/31 00:29:18;;;;;;;9.00;8.20;;;;;;;9.18;100.00;101959.19;4925299;29;20215;-75
2024/01/31 00:31:43;;;;;;;8.10;7.40;;;;;;;9.18;100.00;101961.78;4927607;29;20188;-75
2024/01/31 00:34:08;;;;;;;8.43;7.63;;;;;;;9.19;100.00;101964.41;4928199;29;20198;-75
2024/01/31 00:36:33;;;;;;;8.40;7.57;;;;;;;9.19;100.00;101963.50;4918998;29;20196;-75
2024/01/31 00:38:59;;;;;;;8.13;7.33;;;;;;;9.20;100.00;101952.34;4930346;29;20283;-74
2024/01/31 00:41:25;;;;;;;8.07;7.37;;;;;;;9.21;100.00;101951.50;4930431;29;20721;-74
2024/01/31 00:43:50;;;;;;;8.93;8.03;;;;;;;9.19;100.00;101950.59;4927909;29;20211;-74
2024/01/31 00:46:16;;;;;;;8.50;7.70;;;;;;;9.18;100.00;101952.31;4912235;29;20270;-75
2024/01/31 00:48:43;;;;;;;8.43;7.73;;;;;;;9.17;100.00;101949.69;4931599;29;20204;-75
2024/01/31 00:51:12;;;;;;;8.10;7.23;;;;;;;9.18;100.00;101954.91;4932261;29;20220;-74
2024/01/31 00:53:38;;;;;;;7.97;7.27;;;;;;;9.18;100.00;101957.50;4933934;29;20580;-75
2024/01/31 00:56:04;;;;;;;7.73;7.03;;;;;;;9.18;100.00;101962.66;4925291;29;20187;-74
2024/01/31 00:58:29;;;;;;;7.70;7.00;;;;;;;9.20;100.00;101962.69;4922225;29;20251;-75
2024/01/31 01:00:55;;;;;;;7.60;6.97;;;;;;;9.19;100.00;101967.00;4927330;29;20220;-74
2024/01/31 01:03:20;;;;;;;7.50;6.83;;;;;;;9.20;100.00;101955.81;4930214;29;20199;-76
2024/01/31 01:05:45;;;;;;;8.07;7.37;;;;;;;9.23;100.00;101949.84;4911726;29;20981;-74
2024/01/31 01:08:11;;;;;;;8.30;7.50;;;;;;;9.24;100.00;101957.63;4925935;29;20274;-75
2024/01/31 01:10:36;;;;;;;8.33;7.47;;;;;;;9.24;100.00;101959.34;4921862;29;20219;-75
2024/01/31 01:13:02;;;;;;;7.67;6.90;;;;;;;9.24;100.00;101956.75;4922513;29;20216;-76
2024/01/31 01:15:27;;;;;;;7.30;6.70;;;;;;;9.25;100.00;101966.25;4925787;29;20215;-76
2024/01/31 01:17:52;;;;;;;7.97;7.27;;;;;;;9.23;100.00;101950.69;4929523;29;20192;-75
2024/01/31 01:20:18;;;;;;;8.83;7.97;;;;;;;9.23;100.00;101950.69;4929879;29;20207;-75
2024/01/31 01:22:43;;;;;;;7.97;7.27;;;;;;;9.20;100.00;101949.78;4926603;29;20223;-76
2024/01/31 01:25:10;;;;;;;7.57;6.90;;;;;;;9.21;100.00;101956.69;4926832;29;20354;-75
2024/01/31 01:27:35;;;;;;;7.27;6.67;;;;;;;9.20;100.00;101953.25;4926428;29;20199;-75
2024/01/31 01:30:00;;;;;;;7.90;7.10;;;;;;;9.21;100.00;101955.00;4929627;29;20263;-74
2024/01/31 01:32:26;;;;;;;8.00;6.97;;;;;;;9.21;100.00;101955.00;4919306;29;20204;-75
2024/01/31 01:34:51;;;;;;;7.47;6.77;;;;;;;9.22;100.00;101951.56;4926724;29;20187;-76
2024/01/31 01:37:17;;;;;;;7.00;6.40;;;;;;;9.23;100.00;101949.84;4928664;29;20188;-75
2024/01/31 01:39:44;;;;;;;7.80;7.10;;;;;;;9.23;100.00;101950.69;4926548;29;21003;-75
2024/01/31 01:42:09;;;;;;;8.27;7.47;;;;;;;9.23;100.00;101944.69;4929164;29;20527;-76
2024/01/31 01:44:42;;;;;;;8.63;7.57;;;;;;;9.23;100.00;101942.09;4926870;29;20212;-75
2024/01/31 01:47:08;;;;;;;7.23;6.63;;;;;;;9.21;100.00;101948.94;4928818;29;20191;-74
2024/01/31 01:49:35;;;;;;;8.23;7.43;;;;;;;9.19;100.00;101943.75;4929004;29;20972;-75
2024/01/31 01:52:00;;;;;;;8.03;7.30;;;;;;;9.19;100.00;101943.75;4926159;29;20847;-77
2024/01/31 01:54:25;;;;;;;7.37;6.77;;;;;;;9.19;100.00;101942.84;4927383;29;20224;-75
2024/01/31 01:56:52;;;;;;;7.07;6.47;;;;;;;9.18;100.00;101935.94;4926873;29;20192;-75
2024/01/31 01:59:18;;;;;;;6.90;6.30;;;;;;;9.18;100.00;101936.81;4918885;29;20203;-74
2024/01/31 02:01:44;;;;;;;7.43;6.73;;;;;;;9.19;100.00;101946.31;4921733;29;20192;-75
2024/01/31 02:04:10;;;;;;;7.73;7.03;;;;;;;9.20;100.00;101944.59;4927028;29;20192;-75
2024/01/31 02:06:35;;;;;;;7.60;6.90;;;;;;;9.20;100.00;101940.31;4926353;29;20222;-76
2024/01/31 02:09:01;;;;;;;8.17;7.33;;;;;;;9.20;100.00;101942.91;4909594;29;20784;-76
2024/01/31 02:11:26;;;;;;;8.30;7.50;;;;;;;9.21;100.00;101942.06;4926665;29;20242;-77
2024/01/31 02:13:52;;;;;;;7.40;6.70;;;;;;;9.21;100.00;101936.00;4907184;29;20201;-75
2024/01/31 02:16:17;;;;;;;7.60;6.97;;;;;;;9.20;100.00;101932.56;4925483;29;20203;-74
2024/01/31 02:18:42;;;;;;;7.67;6.97;;;;;;;9.20;100.00;101929.09;4926880;29;20191;-75
2024/01/31 02:21:08;;;;;;;7.60;6.90;;;;;;;9.21;100.00;101938.59;4927731;29;20207;-75
2024/01/31 02:23:33;;;;;;;7.97;7.17;;;;;;;9.21;100.00;101930.84;4926347;29;20267;-74
2024/01/31 02:25:58;;;;;;;7.10;6.50;;;;;;;9.21;100.00;101926.56;4928580;29;20264;-75
2024/01/31 02:28:23;;;;;;;8.13;6.70;;;;;;;9.22;100.00;101927.44;4925806;29;20200;-75
2024/01/31 02:30:50;;;;;;;7.63;6.93;;;;;;;9.23;100.00;101926.59;4922303;29;20717;-75
2024/01/31 02:33:16;;;;;;;7.63;6.97;;;;;;;9.23;100.00;101919.69;4927161;29;20191;-74
2024/01/31 02:35:41;;;;;;;8.17;7.37;;;;;;;9.23;100.00;101924.00;4924924;29;20917;-74
2024/01/31 02:38:06;;;;;;;8.17;7.33;;;;;;;9.21;100.00;101929.16;4926633;29;20203;-75
2024/01/31 02:40:32;;;;;;;8.50;7.67;;;;;;;9.21;100.00;101923.09;4923700;29;20303;-74
2024/01/31 02:42:58;;;;;;;8.30;7.60;;;;;;;9.19;100.00;101919.59;4925506;29;20200;-76
2024/01/31 02:45:24;;;;;;;8.70;7.80;;;;;;;9.19;100.00;101919.59;4926942;29;20628;-74
2024/01/31 02:47:49;;;;;;;10.57;9.57;;;;;;;9.14;100.00;101911.75;4929446;29;20194;-75
2024/01/31 02:50:15;;;;;;;10.57;9.57;;;;;;;9.11;100.00;101916.84;4911089;29;20215;-74
2024/01/31 02:52:40;;;;;;;13.13;11.77;;;;;;;9.07;100.00;101915.06;4927130;29;20202;-73
2024/01/31 02:55:06;;;;;;;10.87;9.90;;;;;;;9.03;100.00;101915.81;4926678;29;20183;-74
2024/01/31 02:57:31;;;;;;;12.03;11.03;;;;;;;8.99;100.00;101928.63;4923278;29;20219;-74
2024/01/31 02:59:57;;;;;;;12.50;11.40;;;;;;;8.98;100.00;101923.44;4926300;29;20214;-74
2024/01/31 03:02:22;;;;;;;10.47;9.57;;;;;;;9.00;100.00;101920.06;4926173;29;20200;-74
2024/01/31 03:04:47;;;;;;;9.50;8.70;;;;;;;9.02;100.00;101925.25;4916154;29;20207;-76
2024/01/31 03:07:13;;;;;;;9.70;8.80;;;;;;;9.03;100.00;101921.81;4905546;29;20212;-74
2024/01/31 03:09:38;;;;;;;10.30;9.30;;;;;;;9.04;100.00;101918.41;4927746;29;20225;-75
2024/01/31 03:12:07;;;;;;;9.63;8.77;;;;;;;9.04;100.00;101917.56;4924506;29;20200;-75
2024/01/31 03:14:33;;;;;;;9.63;8.73;;;;;;;9.01;100.00;101910.59;4918010;29;20206;-74
2024/01/31 03:16:59;;;;;;;10.43;9.63;;;;;;;8.99;100.00;101915.72;4928275;29;20219;-75
2024/01/31 03:19:28;;;;;;;9.67;8.83;;;;;;;9.00;100.00;101916.59;4925019;29;20701;-75
2024/01/31 03:21:53;;;;;;;13.13;12.03;;;;;;;9.00;100.00;101914.00;4926830;29;20183;-76
2024/01/31 03:24:19;;;;;;;13.87;12.57;;;;;;;8.99;100.00;101913.13;4923685;29;20254;-75
2024/01/31 03:26:44;;;;;;;15.57;14.17;;;;;;;8.98;100.00;101910.53;4924929;29;20191;-75
2024/01/31 03:29:09;;;;;;;18.33;16.63;;;;;;;8.98;100.00;101913.13;4927910;29;20191;-76
2024/01/31 03:31:35;;;;;;;20.17;18.27;;;;;;;8.97;100.00;101908.78;4922698;29;20196;-74
2024/01/31 03:34:00;;;;;;;18.90;17.10;;;;;;;8.96;100.00;101915.66;4928602;29;20302;-75
2024/01/31 03:36:26;;;;;;;15.00;13.60;;;;;;;8.95;100.00;101908.72;4926352;29;20236;-74
2024/01/31 03:38:52;;;;;;;15.23;13.83;;;;;;;8.95;100.00;101925.94;4928590;29;20195;-75
2024/01/31 03:41:18;;;;;;;12.70;11.50;;;;;;;8.95;100.00;101929.38;4927486;29;20290;-75
2024/01/31 03:43:43;;;;;;;11.87;10.83;;;;;;;8.95;100.00;101928.53;4927524;29;20638;-76
2024/01/31 03:46:08;;;;;;;11.50;10.37;;;;;;;8.94;100.00;101924.19;4928943;29;20203;-75
2024/01/31 03:48:34;;;;;;;11.83;10.83;;;;;;;8.94;100.00;101934.53;4914134;29;20196;-76
2024/01/31 03:51:00;;;;;;;9.77;8.97;;;;;;;8.94;100.00;101931.94;4928320;29;20696;-75
2024/01/31 03:53:25;;;;;;;10.77;9.83;;;;;;;8.94;100.00;101940.56;4930408;29;20223;-75
2024/01/31 03:55:51;;;;;;;9.33;8.47;;;;;;;8.95;100.00;101939.72;4931952;29;20210;-75
2024/01/31 03:58:17;;;;;;;8.80;8.00;;;;;;;8.97;100.00;101942.34;4932729;29;20557;-76
2024/01/31 04:00:43;;;;;;;9.50;8.70;;;;;;;8.97;100.00;101939.78;4930277;29;20693;-75
2024/01/31 04:03:08;;;;;;;11.00;10.07;;;;;;;8.98;100.00;101947.53;4928960;29;20187;-74
2024/01/31 04:05:33;;;;;;;10.60;9.60;;;;;;;8.97;100.00;101940.63;4935092;29;20208;-75
2024/01/31 04:07:59;;;;;;;9.73;8.93;;;;;;;8.98;100.00;101941.53;4931168;29;20222;-74
2024/01/31 04:10:24;;;;;;;9.67;8.87;;;;;;;8.97;100.00;101942.34;4930297;29;20235;-75
2024/01/31 04:12:50;;;;;;;9.90;9.00;;;;;;;8.97;100.00;101945.78;4942901;29;20227;-75
2024/01/31 04:15:16;;;;;;;11.10;10.00;;;;;;;8.98;100.00;101954.44;4927269;29;20219;-74
2024/01/31 04:17:42;;;;;;;13.33;11.93;;;;;;;8.97;100.00;101950.97;4929343;29;20195;-75
2024/01/31 04:20:08;;;;;;;13.60;12.20;;;;;;;8.97;100.00;101958.72;4928113;29;20230;-74
2024/01/31 04:22:33;;;;;;;12.73;11.53;;;;;;;8.97;100.00;101963.00;4926907;29;20195;-75
2024/01/31 04:24:59;;;;;;;13.27;11.97;;;;;;;8.97;100.00;101961.28;4925248;29;20208;-76
2024/01/31 04:27:24;;;;;;;12.57;11.27;;;;;;;8.97;100.00;101965.59;4930030;29;20678;-75
2024/01/31 04:29:49;;;;;;;11.23;10.13;;;;;;;8.97;100.00;101966.47;4911069;29;20211;-75
2024/01/31 04:32:15;;;;;;;9.90;8.90;;;;;;;8.97;100.00;101965.59;4928181;29;20243;-75
2024/01/31 04:34:40;;;;;;;9.43;8.53;;;;;;;8.96;100.00;101975.03;4928808;29;20271;-74
2024/01/31 04:37:05;;;;;;;9.63;8.77;;;;;;;8.97;100.00;101973.34;4929122;29;20189;-75
2024/01/31 04:39:31;;;;;;;9.73;8.83;;;;;;;8.95;100.00;101978.44;4930457;29;20306;-77
2024/01/31 04:41:56;;;;;;;8.97;8.10;;;;;;;8.95;100.00;101980.19;4927838;29;20202;-76
2024/01/31 04:44:21;;;;;;;9.00;8.20;;;;;;;8.94;100.00;101975.84;4930001;29;20379;-76
2024/01/31 04:46:47;;;;;;;9.07;8.27;;;;;;;8.92;100.00;101978.41;4929006;29;20196;-76
2024/01/31 04:49:12;;;;;;;8.43;7.73;;;;;;;8.91;100.00;101970.59;4930639;29;20677;-75
2024/01/31 04:51:41;;;;;;;9.27;8.47;;;;;;;8.90;100.00;101968.84;4932782;29;20909;-75
2024/01/31 04:54:07;;;;;;;8.93;8.13;;;;;;;8.87;100.00;101976.50;4929132;29;20867;-75
2024/01/31 04:56:33;;;;;;;8.27;7.57;;;;;;;8.84;100.00;101982.47;4929085;29;20203;-75
2024/01/31 04:58:59;;;;;;;8.53;7.80;;;;;;;8.84;100.00;101990.22;4926643;29;20191;-77
2024/01/31 05:01:24;;;;;;;9.10;8.20;;;;;;;8.85;100.00;101991.97;4929506;29;20227;-74
2024/01/31 05:03:49;;;;;;;8.90;8.00;;;;;;;8.82;100.00;101992.78;4928811;29;20675;-75
2024/01/31 05:06:15;;;;;;;9.03;8.20;;;;;;;8.81;100.00;101987.56;4928564;29;20933;-75
2024/01/31 05:08:40;;;;;;;9.23;8.43;;;;;;;8.80;100.00;101984.13;4929559;29;20223;-74
2024/01/31 05:11:06;;;;;;;9.53;8.73;;;;;;;8.82;100.00;101986.72;4925628;29;20216;-75
2024/01/31 05:13:31;;;;;;;9.73;8.80;;;;;;;8.81;100.00;101996.19;4924600;29;20223;-74
2024/01/31 05:15:56;;;;;;;8.53;7.73;;;;;;;8.81;100.00;101992.72;4930454;29;20195;-76
2024/01/31 05:18:22;;;;;;;8.43;7.63;;;;;;;8.81;100.00;101995.31;4925102;29;20822;-76
2024/01/31 05:20:47;;;;;;;8.00;7.30;;;;;;;8.81;100.00;102001.34;4929812;29;20222;-75
2024/01/31 05:23:12;;;;;;;8.87;8.07;;;;;;;8.83;100.00;101998.81;4924703;29;20207;-74
2024/01/31 05:25:38;;;;;;;9.23;8.43;;;;;;;8.84;100.00;102001.44;4927956;29;20204;-76
2024/01/31 05:28:03;;;;;;;8.67;7.87;;;;;;;8.84;100.00;101998.84;4924322;29;20723;-75
2024/01/31 05:30:29;;;;;;;8.70;7.90;;;;;;;8.84;100.00;101996.28;4926806;29;20265;-75
2024/01/31 05:32:54;;;;;;;9.70;8.90;;;;;;;8.84;100.00;101998.84;4927901;29;20205;-74
2024/01/31 05:35:20;;;;;;;8.23;7.50;;;;;;;8.84;100.00;102000.56;4925298;29;20185;-76
2024/01/31 05:37:45;;;;;;;8.87;8.07;;;;;;;8.83;100.00;101999.69;4925902;29;20194;-74
2024/01/31 05:40:16;;;;;;;8.87;8.00;;;;;;;8.83;100.00;101997.09;4923503;29;20217;-77
2024/01/31 05:42:42;;;;;;;9.00;8.13;;;;;;;8.83;100.00;101996.22;4915441;29;20229;-75
2024/01/31 05:45:07;;;;;;;8.07;7.40;;;;;;;8.83;100.00;102006.53;4927071;29;20654;-75
2024/01/31 05:47:33;;;;;;;8.20;7.50;;;;;;;8.83;100.00;102001.38;4925413;29;20301;-74
2024/01/31 05:49:58;;;;;;;8.27;7.57;;;;;;;8.83;100.00;102001.38;4924299;29;20709;-75
2024/01/31 05:52:24;;;;;;;7.77;7.10;;;;;;;8.83;100.00;102001.38;4929150;29;20207;-75
2024/01/31 05:54:49;;;;;;;7.87;7.17;;;;;;;8.83;100.00;102004.84;4917237;29;20706;-76
2024/01/31 05:57:14;;;;;;;8.37;7.67;;;;;;;8.83;100.00;102004.84;4929440;29;20219;-77
2024/01/31 05:59:42;;;;;;;8.63;7.83;;;;;;;8.82;100.00;101999.63;4927302;29;20214;-76
2024/01/31 06:02:08;;;;;;;9.40;8.27;;;;;;;8.80;100.00;102003.88;4925600;29;20183;-74
2024/01/31 06:04:33;;;;;;;9.43;8.63;;;;;;;8.77;100.00;102012.44;4922359;29;20666;-75
2024/01/31 06:06:58;;;;;;;9.13;8.27;;;;;;;8.77;100.00;102009.84;4925456;29;20203;-76
2024/01/31 06:09:24;;;;;;;9.90;8.90;;;;;;;8.78;100.00;102021.03;4909953;29;20219;-76
2024/01/31 06:11:49;;;;;;;12.77;11.47;;;;;;;8.81;100.00;102008.22;4924764;29;20832;-75
2024/01/31 06:14:15;;;;;;;12.20;11.00;;;;;;;8.66;100.00;102011.28;4927151;29;20207;-77
2024/01/31 06:16:40;;;;;;;12.80;11.50;;;;;;;8.50;100.00;102013.44;4927602;29;20650;-75
2024/01/31 06:19:08;;;;;;;12.70;11.50;;;;;;;8.44;100.00;102015.81;4923691;29;20192;-75
2024/01/31 06:21:33;;;;;;;12.70;11.43;;;;;;;8.43;100.00;102020.94;4925763;29;20667;-74
2024/01/31 06:23:59;;;;;;;12.27;10.97;;;;;;;8.46;100.00;102024.47;4925199;29;20201;-74
2024/01/31 06:26:24;;;;;;;12.90;11.57;;;;;;;8.50;100.00;102025.44;4926233;29;20235;-75
2024/01/31 06:28:49;;;;;;;13.57;12.17;;;;;;;8.50;100.00;102031.50;4924427;29;20191;-75
2024/01/31 06:31:25;;;;;;;15.10;13.10;;;;;;;8.46;100.00;102018.44;4926906;29;20211;-74
2024/01/31 06:33:50;;;;;;;14.07;12.43;;;;;;;8.41;100.00;102020.00;4922456;29;20195;-75
2024/01/31 06:36:18;;;;;;;15.13;13.60;;;;;;;8.36;100.00;102013.00;4926444;29;20808;-76
2024/01/31 06:38:44;;;;;;;16.23;13.70;;;;;;;8.35;100.00;102018.16;4924089;29;20555;-75
2024/01/31 06:41:12;;;;;;;15.97;13.13;;;;;;;8.35;100.00;102018.16;4928117;29;20218;-75
2024/01/31 06:43:38;;;;;;;13.23;12.03;;;;;;;8.30;100.00;102020.59;4926669;29;20218;-76
2024/01/31 06:46:03;;;;;;;12.40;11.30;;;;;;;8.22;100.00;102032.38;4928277;29;20265;-74
2024/01/31 06:48:28;;;;;;;13.20;11.83;;;;;;;8.27;100.00;102032.50;4922649;29;22012;-74
2024/01/31 06:50:54;;;;;;;12.83;11.50;;;;;;;8.19;100.00;102030.59;4924558;29;20219;-76
2024/01/31 06:53:19;;;;;;;14.00;12.60;;;;;;;8.21;100.00;102035.78;4928991;29;20302;-75
2024/01/31 06:55:44;;;;;;;14.33;12.93;;;;;;;8.20;100.00;102042.66;4938278;29;20246;-75
2024/01/31 06:58:10;;;;;;;13.47;12.07;;;;;;;8.22;100.00;102037.53;4926725;29;20192;-76
2024/01/31 07:00:35;;;;;;;13.97;11.90;;;;;;;8.16;100.00;102038.25;4927613;29;20211;-74
2024/01/31 07:03:00;;;;;;;12.90;11.70;;;;;;;8.16;100.00;102033.09;4928006;29;20202;-75
2024/01/31 07:05:25;;;;;;;14.17;12.67;;;;;;;8.13;100.00;102042.44;4928379;29;20865;-75
2024/01/31 07:07:51;;;;;;;14.90;12.20;;;;;;;8.13;100.00;102040.72;4926332;29;20207;-76
2024/01/31 07:10:16;;;;;;;13.27;12.07;;;;;;;8.17;100.00;102036.53;4925706;29;20254;-75
2024/01/31 07:12:41;;;;;;;12.83;11.53;;;;;;;8.14;100.00;102032.16;4920600;29;20289;-74
2024/01/31 07:15:07;;;;;;;12.03;10.83;;;;;;;8.17;100.00;102034.84;4920940;29;20275;-75
2024/01/31 07:17:32;;;;;;;11.33;10.33;;;;;;;8.21;100.00;102041.84;4928416;29;20198;-75
2024/01/31 07:19:58;;;;;;;11.37;10.37;;;;;;;8.24;100.00;102029.00;4925736;29;20222;-75
2024/01/31 07:22:23;;;;;;;12.67;11.53;;;;;;;8.28;100.00;102036.84;4927656;29;20194;-75
2024/01/31 07:24:48;;;;;;;11.67;10.53;;;;;;;8.31;100.00;102026.63;4931376;29;20607;-75
2024/01/31 07:27:14;;;;;;;10.07;9.27;;;;;;;8.32;100.00;102030.94;4935837;29;20187;-74
2024/01/31 07:29:39;;;;;;;11.33;10.23;;;;;;;8.35;100.00;102031.03;4937402;29;20222;-76
2024/01/31 07:32:05;;;;;;;10.97;9.93;;;;;;;8.36;100.00;102025.06;4939542;29;20625;-75
2024/01/31 07:34:30;;;;;;;10.50;9.60;;;;;;;8.39;100.00;102036.31;4923898;29;20199;-76
2024/01/31 07:36:55;;;;;;;10.63;9.73;;;;;;;8.42;100.00;102032.94;4936457;29;20187;-75
2024/01/31 07:39:21;;;;;;;10.00;9.10;;;;;;;8.43;100.00;102034.69;4917716;29;20202;-76
2024/01/31 07:41:46;;;;;;;10.00;9.17;;;;;;;8.47;100.00;102039.13;4925386;29;20239;-74
2024/01/31 07:44:11;;;;;;;10.63;9.63;;;;;;;8.49;100.00;102037.50;4931893;29;20187;-75
2024/01/31 07:46:37;;;;;;;11.73;10.60;;;;;;;8.51;100.00;102042.69;4931551;29;20215;-75
2024/01/31 07:49:06;;;;;;;14.90;13.50;;;;;;;8.52;100.00;102045.34;4929105;29;20204;-74
2024/01/31 07:51:31;;;;;;;14.13;12.83;;;;;;;8.54;100.00;102048.84;4932599;29;20214;-75
2024/01/31 07:53:57;;;;;;;12.73;11.57;;;;;;;8.57;100.00;102041.97;4929700;29;20662;-76
2024/01/31 07:56:22;;;;;;;13.70;12.40;;;;;;;8.58;100.00;102043.72;4929585;29;20261;-74
2024/01/31 07:58:47;;;;;;;13.67;12.47;;;;;;;8.60;100.00;102037.81;4925417;29;20206;-74
2024/01/31 08:01:13;;;;;;;12.77;11.60;;;;;;;8.62;100.00;102043.00;4925001;29;20208;-75
2024/01/31 08:03:41;;;;;;;13.80;12.40;;;;;;;8.64;100.00;102047.34;4931691;29;20784;-74
2024/01/31 08:06:07;;;;;;;13.37;12.07;;;;;;;8.64;100.00;102034.44;4930029;29;20705;-76
2024/01/31 08:08:32;;;;;;;11.87;10.77;;;;;;;8.64;100.00;102031.88;4920739;29;20195;-74
2024/01/31 08:10:59;;;;;;;12.37;11.10;;;;;;;8.68;100.00;102032.84;4927059;29;20210;-74
2024/01/31 08:13:25;;;;;;;12.10;11.00;;;;;;;8.71;100.00;102029.47;4915968;29;20821;-75
2024/01/31 08:15:51;;;;;;;15.10;13.57;;;;;;;8.71;100.00;102030.31;4927473;29;20175;-75
2024/01/31 08:18:16;;;;;;;13.23;11.93;;;;;;;8.74;100.00;102040.72;4925070;29;20192;-76
2024/01/31 08:20:41;;;;;;;13.57;12.20;;;;;;;8.76;100.00;102044.25;4924436;29;20272;-75
2024/01/31 08:23:07;;;;;;;13.90;12.60;;;;;;;8.79;100.00;102043.44;4928175;29;20199;-75
2024/01/31 08:25:32;;;;;;;13.20;12.07;;;;;;;8.79;100.00;102054.66;4929016;29;20207;-75
2024/01/31 08:27:57;;;;;;;12.60;11.47;;;;;;;8.81;100.00;102058.16;4913928;29;20207;-74
2024/01/31 08:30:22;;;;;;;12.90;11.60;;;;;;;8.83;100.00;102063.34;4932127;29;20223;-74
2024/01/31 08:32:48;;;;;;;14.13;12.73;;;;;;;8.83;100.00;102053.91;4931124;29;20278;-75
2024/01/31 08:35:13;;;;;;;12.63;11.43;;;;;;;8.84;100.00;102054.78;4932785;29;20565;-74
2024/01/31 08:37:39;;;;;;;12.53;11.33;;;;;;;8.83;100.00;102047.84;4932156;29;20183;-75
2024/01/31 08:40:07;;;;;;;12.90;11.63;;;;;;;8.87;100.00;102049.69;4932688;29;20744;-74
2024/01/31 08:42:33;;;;;;;13.00;11.80;;;;;;;8.90;100.00;102049.78;4932579;29;20183;-75
2024/01/31 08:44:58;;;;;;;12.13;10.87;;;;;;;8.96;100.00;102056.81;4935992;29;20205;-74
2024/01/31 08:47:24;;;;;;;12.43;11.33;;;;;;;8.99;100.00;102054.31;4939143;29;20424;-74
2024/01/31 08:49:49;;;;;;;12.60;11.40;;;;;;;9.01;100.00;102047.44;4938080;29;20219;-76
2024/01/31 08:52:15;;;;;;;12.70;11.50;;;;;;;9.06;100.00;102047.59;4933788;29;20274;-75
2024/01/31 08:54:40;;;;;;;12.47;11.17;;;;;;;9.09;100.00;102045.06;4929264;29;20255;-75
2024/01/31 08:57:06;;;;;;;11.20;10.20;;;;;;;9.10;100.00;102044.22;4923925;29;20194;-77
2024/01/31 08:59:31;;;;;;;11.70;10.60;;;;;;;9.12;100.00;102047.72;4922602;29;20704;-77
2024/01/31 09:01:57;;;;;;;12.97;11.77;;;;;;;9.11;100.00;102049.47;4923147;29;20294;-76
2024/01/31 09:04:22;;;;;;;12.87;11.67;;;;;;;9.12;100.00;102045.16;4927483;29;20697;-74
2024/01/31 09:06:47;;;;;;;12.93;11.73;;;;;;;9.14;100.00;102046.06;4926449;29;20239;-75
2024/01/31 09:09:13;;;;;;;12.57;11.27;;;;;;;9.18;100.00;102041.84;4922257;29;20205;-74
2024/01/31 09:11:38;;;;;;;12.20;11.20;;;;;;;9.21;100.00;102041.94;4921544;29;20247;-75
2024/01/31 09:14:03;;;;;;;11.97;10.87;;;;;;;9.24;100.00;102037.69;4922543;29;20678;-76
2024/01/31 09:16:29;;;;;;;11.90;10.80;;;;;;;9.29;100.00;102035.25;4927499;29;20248;-75
2024/01/31 09:18:54;;;;;;;11.30;10.27;;;;;;;9.34;100.00;102037.94;4925154;29;20191;-75
2024/01/31 09:21:21;;;;;;;11.90;10.83;;;;;;;9.37;100.00;102031.13;4921713;29;20199;-76
2024/01/31 09:23:46;;;;;;;11.50;10.50;;;;;;;9.41;100.00;102030.38;4918984;29;20191;-76
2024/01/31 09:26:12;;;;;;;11.73;10.73;;;;;;;9.45;100.00;102023.56;4926536;29;20624;-75
2024/01/31 09:28:38;;;;;;;12.10;10.90;;;;;;;9.47;100.00;102029.66;4926151;29;20191;-77
2024/01/31 09:31:03;;;;;;;12.70;11.60;;;;;;;9.50;100.00;102034.00;4922963;29;20204;-74
2024/01/31 09:33:28;;;;;;;12.00;11.00;;;;;;;9.51;100.00;102028.00;4927238;29;20274;-74
2024/01/31 09:35:54;;;;;;;12.77;11.57;;;;;;;9.53;100.00;102039.25;4925337;29;20187;-76
2024/01/31 09:38:19;;;;;;;12.00;10.83;;;;;;;9.53;100.00;102047.00;4927960;29;20194;-75
2024/01/31 09:40:45;;;;;;;12.37;11.20;;;;;;;9.55;100.00;102043.63;4927280;29;20219;-74
2024/01/31 09:43:10;;;;;;;13.40;12.23;;;;;;;9.57;100.00;102047.13;4929661;29;20664;-75
2024/01/31 09:45:38;;;;;;;13.67;12.27;;;;;;;9.61;100.00;102043.78;4924211;29;20222;-75
2024/01/31 09:48:04;;;;;;;15.00;13.70;;;;;;;9.66;100.00;102040.44;4927481;29;20195;-75
2024/01/31 09:50:30;;;;;;;14.50;13.20;;;;;;;9.69;100.00;102035.31;4929291;29;20248;-75
2024/01/31 09:52:57;;;;;;;14.47;13.17;;;;;;;9.74;100.00;102029.44;4926392;29;20184;-73
2024/01/31 09:55:26;;;;;;;13.60;12.40;;;;;;;9.79;100.00;102036.38;4929159;29;20651;-75
2024/01/31 09:57:51;;;;;;;14.53;13.23;;;;;;;9.84;100.00;102030.47;4926160;29;20184;-74
2024/01/31 10:00:17;;;;;;;14.00;12.70;;;;;;;9.86;100.00;102033.97;4927263;29;20823;-74
2024/01/31 10:02:44;;;;;;;14.37;13.07;;;;;;;9.88;100.00;102029.72;4925623;29;20568;-75
2024/01/31 10:05:09;;;;;;;15.07;13.77;;;;;;;9.91;100.00;102016.84;4915226;29;20306;-76
2024/01/31 10:07:38;;;;;;;15.83;14.33;;;;;;;10.00;100.00;102020.47;4928689;29;20212;-75
2024/01/31 10:10:04;;;;;;;14.40;13.20;;;;;;;10.12;100.00;102017.28;4926744;29;20213;-74
2024/01/31 10:12:29;;;;;;;13.53;12.33;;;;;;;10.21;100.00;102013.16;4928745;29;20817;-74
2024/01/31 10:14:55;;;;;;;13.40;12.20;;;;;;;10.31;100.00;102011.63;4920571;29;20195;-76
2024/01/31 10:17:21;;;;;;;13.80;12.50;;;;;;;10.41;100.00;102020.50;4927005;29;20193;-73
2024/01/31 10:19:48;;;;;;;14.20;12.97;;;;;;;10.50;100.00;102010.31;4927877;29;20213;-75
2024/01/31 10:22:14;;;;;;;14.93;13.43;;;;;;;10.58;100.00;102017.34;4923879;29;20336;-74
2024/01/31 10:24:39;;;;;;;15.80;14.30;;;;;;;10.61;100.00;102022.56;4926587;29;20635;-75
2024/01/31 10:27:08;;;;;;;15.70;14.20;;;;;;;10.65;100.00;102014.03;4905650;29;20255;-75
2024/01/31 10:29:34;;;;;;;14.67;13.47;;;;;;;10.69;100.00;102013.25;4923385;29;20214;-74
2024/01/31 10:32:00;;;;;;;14.47;13.17;;;;;;;10.75;100.00;102012.47;4927316;29;20203;-75
2024/01/31 10:34:27;;;;;;;15.90;14.40;;;;;;;10.78;100.00;102010.81;4928456;29;20194;-75
2024/01/31 10:36:55;;;;;;;15.57;14.17;;;;;;;10.89;100.00;102010.16;4926225;29;20185;-74
2024/01/31 10:39:20;;;;;;;15.37;13.97;;;;;;;11.02;100.00;102000.84;4923692;29;20701;-76
2024/01/31 10:41:47;;;;;;;16.17;14.60;;;;;;;11.08;100.00;101994.06;4927389;29;20250;-75
2024/01/31 10:44:16;;;;;;;14.57;13.27;;;;;;;11.09;100.00;101987.16;4929632;29;20184;-74
2024/01/31 10:46:45;;;;;;;14.90;13.60;;;;;;;11.23;100.00;101996.03;4933689;29;20802;-75
2024/01/31 10:49:16;;;;;;;15.37;13.97;;;;;;;11.36;100.00;101985.84;4913741;29;20222;-75
2024/01/31 10:51:45;;;;;;;15.50;14.10;;;;;;;11.49;100.00;101987.78;4925285;29;20241;-76
2024/01/31 10:54:12;;;;;;;16.30;14.90;;;;;;;11.71;100.00;101975.97;4924190;29;20570;-76
2024/01/31 10:56:37;;;;;;;16.47;14.93;;;;;;;11.76;100.00;101975.19;4908525;29;20209;-75
2024/01/31 10:59:07;;;;;;;16.23;14.73;;;;;;;11.83;100.00;101976.97;4925088;29;20193;-76
2024/01/31 11:01:32;;;;;;;17.27;15.67;;;;;;;12.00;100.00;101965.13;4928461;29;20741;-74
2024/01/31 11:03:58;;;;;;;15.57;14.27;;;;;;;12.18;100.00;101963.59;4925574;29;20198;-74
2024/01/31 11:06:38;;;;;;;16.83;15.33;;;;;;;12.24;100.00;101970.59;4929097;29;20721;-76
2024/01/31 11:09:03;;;;;;;16.90;15.40;;;;;;;12.25;100.00;101972.34;4930012;29;20230;-74